Time;durP1;ratioP1;P1;durP2;ratioP2;P2;SDS_P1;SDS_P2;PMS_P1;PMS_P2;Temp;Humidity;BMP_temperature;BMP_pressure;BME280_temperature;BME280_humidity;BME280_pressure;Samples;Min_cycle;Max_cycle;Signal;HPM_P1;HPM_P2
2023/01/05 00:01:48;;;;;;;3.75;1.20;;;;;;;;;;5006909;28;20112;-67
2023/01/05 00:04:14;;;;;;;13.88;4.13;;;;;;;;;;5015374;28;20097;-67
2023/01/05 00:06:40;;;;;;;13.05;3.00;;;;;;;;;;4995704;28;20030;-67
2023/01/05 00:09:07;;;;;;;9.50;2.70;;;;;;;;;;5004949;28;20115;-67
2023/01/05 00:22:50;;;;;;;3.97;1.25;;;;;;;;;;4995674;28;20568;-67
2023/01/05 00:25:28;;;;;;;4.10;1.80;;;;;;;;;;4995621;28;20061;-66
2023/01/05 00:27:55;;;;;;;4.15;1.35;;;;;;;;;;4995554;28;20065;-68
2023/01/05 00:30:23;;;;;;;4.78;1.33;;;;;;;;;;5012054;28;20391;-67
2023/01/05 00:32:49;;;;;;;3.13;0.80;;;;;;;;;;5015172;28;20486;-67
2023/01/05 00:35:15;;;;;;;5.70;1.50;;;;;;;;;;5014923;28;20069;-67
2023/01/05 00:37:41;;;;;;;7.32;1.52;;;;;;;;;;5014844;28;20032;-67
2023/01/05 00:40:10;;;;;;;3.78;1.45;;;;;;;;;;5014948;28;20034;-67
2023/01/05 00:42:36;;;;;;;2.83;1.10;;;;;;;;;;5014828;28;20108;-67
2023/01/05 00:45:02;;;;;;;4.30;1.00;;;;;;;;;;5014423;28;20471;-67
2023/01/05 00:47:27;;;;;;;3.80;1.30;;;;;;;;;;5014727;28;20037;-68
2023/01/05 00:49:53;;;;;;;3.67;1.00;;;;;;;;;;5013398;28;20099;-67
2023/01/05 00:52:18;;;;;;;4.85;1.00;;;;;;;;;;5014583;28;20455;-67
2023/01/05 00:54:43;;;;;;;3.53;1.27;;;;;;;;;;5014690;28;20029;-67
2023/01/05 00:57:13;;;;;;;3.55;1.08;;;;;;;;;;5013295;28;20025;-67
2023/01/05 00:59:39;;;;;;;4.15;1.40;;;;;;;;;;5014386;28;20146;-67
2023/01/05 01:02:04;;;;;;;3.63;1.00;;;;;;;;;;5014586;28;20105;-68
2023/01/05 01:04:31;;;;;;;4.78;1.40;;;;;;;;;;5014256;28;20030;-67
2023/01/05 01:06:56;;;;;;;2.95;1.00;;;;;;;;;;5014220;28;20026;-67
2023/01/05 01:09:22;;;;;;;2.22;0.90;;;;;;;;;;5014386;28;20036;-67
2023/01/05 01:11:47;;;;;;;3.58;1.30;;;;;;;;;;5014303;28;20034;-67
2023/01/05 01:14:14;;;;;;;1.88;0.80;;;;;;;;;;5014082;28;20064;-67
2023/01/05 01:16:43;;;;;;;1.90;0.70;;;;;;;;;;5004119;28;20495;-67
2023/01/05 01:19:13;;;;;;;3.08;0.90;;;;;;;;;;4994529;28;20030;-67
2023/01/05 01:21:38;;;;;;;;;;;;;;;;;;4995027;28;20033;-67
2023/01/05 01:24:04;;;;;;;3.15;1.10;;;;;;;;;;4994552;28;19913;-67
2023/01/05 01:26:29;;;;;;;4.60;1.27;;;;;;;;;;4994261;28;20034;-67
2023/01/05 01:28:55;;;;;;;4.68;1.10;;;;;;;;;;4999772;28;20101;-68
2023/01/05 01:31:20;;;;;;;2.92;1.05;;;;;;;;;;5851356;23;20315;-68
2023/01/05 01:33:46;;;;;;;5.63;1.35;;;;;;;;;;4993543;28;20117;-70
2023/01/05 01:36:11;;;;;;;4.95;1.00;;;;;;;;;;4994292;28;20501;-70
2023/01/05 01:38:37;;;;;;;6.90;1.13;;;;;;;;;;4975626;28;20467;-68
2023/01/05 01:41:02;;;;;;;4.32;1.20;;;;;;;;;;4990598;28;20030;-67
2023/01/05 01:43:57;;;;;;;3.25;1.35;;;;;;;;;;4975327;28;20035;-67
2023/01/05 01:46:24;;;;;;;4.55;1.55;;;;;;;;;;4984993;28;20045;-68
2023/01/05 01:49:07;;;;;;;3.70;1.10;;;;;;;;;;4978191;28;20045;-68
2023/01/05 01:51:39;;;;;;;4.57;1.20;;;;;;;;;;4988617;28;20026;-68
2023/01/05 01:54:07;;;;;;;5.25;1.10;;;;;;;;;;4979757;28;20495;-68
2023/01/05 01:56:38;;;;;;;8.00;1.60;;;;;;;;;;4988761;28;20042;-67
2023/01/05 01:59:03;;;;;;;3.00;1.23;;;;;;;;;;4983552;28;20053;-68
2023/01/05 02:01:29;;;;;;;3.70;1.15;;;;;;;;;;4985098;28;20484;-68
2023/01/05 02:03:55;;;;;;;5.20;1.33;;;;;;;;;;4982156;28;20126;-68
2023/01/05 02:06:21;;;;;;;3.47;1.17;;;;;;;;;;4986498;28;20185;-68
2023/01/05 02:08:47;;;;;;;6.35;1.45;;;;;;;;;;4980462;28;20022;-68
2023/01/05 02:11:50;;;;;;;6.65;1.35;;;;;;;;;;4987573;28;20114;-68
2023/01/05 02:14:33;;;;;;;5.97;1.33;;;;;;;;;;4984649;28;20106;-69
2023/01/05 02:17:07;;;;;;;6.50;1.30;;;;;;;;;;4981474;28;20035;-69
2023/01/05 02:20:03;;;;;;;5.13;1.17;;;;;;;;;;4986798;28;20030;-68
2023/01/05 02:22:59;;;;;;;6.68;1.42;;;;;;;;;;4977341;28;20040;-67
2023/01/05 02:25:50;;;;;;;6.22;1.35;;;;;;;;;;4993434;28;20029;-68
2023/01/05 02:28:42;;;;;;;5.00;1.45;;;;;;;;;;4975592;28;20038;-68
2023/01/05 02:31:12;;;;;;;5.10;1.52;;;;;;;;;;4988320;28;20527;-68
2023/01/05 02:33:53;;;;;;;8.30;1.20;;;;;;;;;;4978530;28;20049;-68
2023/01/05 02:36:44;;;;;;;6.95;1.48;;;;;;;;;;4987228;28;20039;-68
2023/01/05 02:39:22;;;;;;;6.03;1.52;;;;;;;;;;4982800;28;20125;-67
2023/01/05 02:41:54;;;;;;;6.72;1.55;;;;;;;;;;4983332;28;20053;-68
2023/01/05 02:44:20;;;;;;;2.65;0.90;;;;;;;;;;4983811;28;20030;-67
2023/01/05 02:46:46;;;;;;;6.10;1.30;;;;;;;;;;4983680;28;20035;-68
2023/01/05 02:49:15;;;;;;;5.05;1.33;;;;;;;;;;4973858;28;20439;-68
2023/01/05 02:51:47;;;;;;;6.05;1.38;;;;;;;;;;4991696;28;20452;-68
2023/01/05 02:54:52;;;;;;;4.93;1.30;;;;;;;;;;4984442;28;20466;-68
2023/01/05 02:57:47;;;;;;;3.65;1.10;;;;;;;;;;4986499;28;20503;-68
2023/01/05 03:00:36;;;;;;;9.05;1.40;;;;;;;;;;4976387;28;20031;-68
2023/01/05 03:03:25;;;;;;;5.88;1.02;;;;;;;;;;4992959;28;20309;-68
2023/01/05 03:06:12;;;;;;;6.45;1.27;;;;;;;;;;4975029;28;20431;-69
2023/01/05 03:08:47;;;;;;;6.00;1.48;;;;;;;;;;4989305;28;20027;-67
2023/01/05 03:14:12;;;;;;;19.40;9.95;;;;;;;;;;4986869;28;20077;-68
2023/01/05 03:16:38;;;;;;;12.18;5.82;;;;;;;;;;4981315;28;20073;-68
2023/01/05 03:35:53;;;;;;;6.93;1.92;;;;;;;;;;4977801;28;20542;-68
2023/01/05 03:38:25;;;;;;;9.32;2.28;;;;;;;;;;4995887;28;20038;-68
2023/01/05 03:40:52;;;;;;;10.00;2.20;;;;;;;;;;4977664;28;20035;-68
2023/01/05 03:43:19;;;;;;;8.93;2.95;;;;;;;;;;4991874;28;20027;-68
2023/01/05 03:45:51;;;;;;;9.57;2.95;;;;;;;;;;4980677;28;20057;-68
2023/01/05 03:48:17;;;;;;;8.48;2.25;;;;;;;;;;4992391;28;20038;-68
2023/01/05 03:50:42;;;;;;;16.58;4.80;;;;;;;;;;4980227;28;20483;-68
2023/01/05 03:53:08;;;;;;;14.07;4.05;;;;;;;;;;4989382;28;20031;-68
2023/01/05 03:55:33;;;;;;;14.10;6.32;;;;;;;;;;4982718;28;20038;-68
2023/01/05 03:57:58;;;;;;;15.48;6.18;;;;;;;;;;4990470;28;20030;-68
2023/01/05 04:00:24;;;;;;;16.77;8.25;;;;;;;;;;4985601;28;20027;-69
2023/01/05 04:02:50;;;;;;;130.48;52.30;;;;;;;;;;4987881;28;20387;-68
2023/01/05 04:05:16;;;;;;;90.18;48.10;;;;;;;;;;4995802;28;20030;-69
2023/01/05 04:07:41;;;;;;;15.75;6.97;;;;;;;;;;4976435;28;20049;-69
2023/01/05 04:10:07;;;;;;;12.55;6.15;;;;;;;;;;4982604;28;20065;-69
2023/01/05 04:12:33;;;;;;;11.52;4.15;;;;;;;;;;4989931;28;20035;-69
2023/01/05 04:14:58;;;;;;;10.38;4.65;;;;;;;;;;4981255;28;20109;-68
2023/01/05 04:17:24;;;;;;;14.25;6.88;;;;;;;;;;4991569;28;20490;-69
2023/01/05 04:19:49;;;;;;;16.58;8.00;;;;;;;;;;4979834;28;20036;-69
2023/01/05 04:22:14;;;;;;;11.77;5.35;;;;;;;;;;4992591;28;20084;-69
2023/01/05 04:24:40;;;;;;;4.45;1.92;;;;;;;;;;4978302;28;20026;-69
2023/01/05 04:27:05;;;;;;;16.30;5.95;;;;;;;;;;4993814;28;20091;-69
2023/01/05 04:29:31;;;;;;;8.07;2.55;;;;;;;;;;4976775;28;20170;-69
2023/01/05 04:31:56;;;;;;;13.73;2.45;;;;;;;;;;4994757;28;20496;-69
2023/01/05 04:34:21;;;;;;;15.65;3.13;;;;;;;;;;4976312;28;20027;-69
2023/01/05 04:36:48;;;;;;;14.82;2.65;;;;;;;;;;4995056;28;20116;-68
2023/01/05 04:39:14;;;;;;;9.85;2.60;;;;;;;;;;4976923;28;20063;-69
2023/01/05 04:41:39;;;;;;;10.52;2.90;;;;;;;;;;4993356;28;20046;-69
2023/01/05 04:44:04;;;;;;;16.60;3.03;;;;;;;;;;5012434;28;20042;-69
2023/01/05 04:46:30;;;;;;;9.88;1.90;;;;;;;;;;4998175;28;20034;-69
2023/01/05 04:48:56;;;;;;;17.77;3.60;;;;;;;;;;4979155;28;20034;-69
2023/01/05 04:51:21;;;;;;;15.00;2.65;;;;;;;;;;4990733;28;20019;-68
2023/01/05 04:53:47;;;;;;;12.25;2.03;;;;;;;;;;4980630;28;20066;-69
2023/01/05 04:56:12;;;;;;;12.55;3.05;;;;;;;;;;4989294;28;20031;-69
2023/01/05 04:58:38;;;;;;;6.55;1.48;;;;;;;;;;4981983;28;20506;-69
2023/01/05 05:01:03;;;;;;;8.45;1.80;;;;;;;;;;4987851;28;20026;-69
2023/01/05 05:03:28;;;;;;;12.68;2.45;;;;;;;;;;4983174;28;20030;-69
2023/01/05 05:05:54;;;;;;;12.88;1.85;;;;;;;;;;4986242;28;20078;-69
2023/01/05 05:08:19;;;;;;;8.98;2.08;;;;;;;;;;4984387;28;20073;-68
2023/01/05 05:10:45;;;;;;;10.73;1.92;;;;;;;;;;4984760;28;20034;-69
2023/01/05 05:13:10;;;;;;;6.70;1.90;;;;;;;;;;4985543;28;20027;-69
2023/01/05 05:15:35;;;;;;;10.30;1.90;;;;;;;;;;4983563;28;20112;-69
2023/01/05 05:18:01;;;;;;;8.18;1.55;;;;;;;;;;4986757;28;20031;-68
2023/01/05 05:20:26;;;;;;;7.35;1.30;;;;;;;;;;4982038;28;20027;-69
2023/01/05 05:22:52;;;;;;;11.70;2.00;;;;;;;;;;4988277;28;20050;-68
2023/01/05 05:25:17;;;;;;;16.38;2.00;;;;;;;;;;4974786;28;20397;-68
2023/01/05 05:27:42;;;;;;;8.30;1.73;;;;;;;;;;4979803;28;20550;-69
2023/01/05 05:30:08;;;;;;;7.40;1.70;;;;;;;;;;4990228;28;20399;-69
2023/01/05 05:32:34;;;;;;;8.05;1.55;;;;;;;;;;4978129;28;20045;-68
2023/01/05 05:34:59;;;;;;;7.45;1.40;;;;;;;;;;4991493;28;20452;-69
2023/01/05 05:37:25;;;;;;;8.55;1.90;;;;;;;;;;4976927;28;20114;-68
2023/01/05 05:39:50;;;;;;;7.10;1.02;;;;;;;;;;4992387;28;20487;-68
2023/01/05 05:42:15;;;;;;;7.13;1.52;;;;;;;;;;4975560;28;20436;-68
2023/01/05 05:44:41;;;;;;;5.15;1.80;;;;;;;;;;4993354;28;20498;-68
2023/01/05 05:47:06;;;;;;;8.50;1.85;;;;;;;;;;4974516;28;20046;-69
2023/01/05 05:49:32;;;;;;;8.40;1.30;;;;;;;;;;4993546;28;20080;-68
2023/01/05 05:51:57;;;;;;;5.72;1.38;;;;;;;;;;4975695;28;20150;-69
2023/01/05 05:54:22;;;;;;;6.85;1.60;;;;;;;;;;4991788;28;20080;-69
2023/01/05 05:56:48;;;;;;;8.07;1.52;;;;;;;;;;4976987;28;20066;-69
2023/01/05 05:59:13;;;;;;;7.60;1.25;;;;;;;;;;4990600;28;20030;-69
2023/01/05 06:01:39;;;;;;;7.13;1.35;;;;;;;;;;4977034;28;20053;-69
2023/01/05 06:04:04;;;;;;;8.20;1.10;;;;;;;;;;4974318;28;20030;-69
2023/01/05 06:06:30;;;;;;;5.78;1.25;;;;;;;;;;4988174;28;20061;-68
2023/01/05 06:08:55;;;;;;;11.00;1.48;;;;;;;;;;4979910;28;20034;-69
2023/01/05 06:11:21;;;;;;;8.80;1.45;;;;;;;;;;4986839;28;20425;-69
2023/01/05 06:13:47;;;;;;;9.70;1.70;;;;;;;;;;4981571;28;20229;-69
2023/01/05 06:16:14;;;;;;;7.07;1.92;;;;;;;;;;4985745;28;20488;-69
2023/01/05 06:18:39;;;;;;;7.72;1.42;;;;;;;;;;4982459;28;20380;-69
2023/01/05 06:21:05;;;;;;;9.20;2.33;;;;;;;;;;4984487;28;20030;-69
2023/01/05 06:23:30;;;;;;;6.28;1.27;;;;;;;;;;4983590;28;20495;-69
2023/01/05 06:25:56;;;;;;;10.73;2.30;;;;;;;;;;4983117;28;20384;-69
2023/01/05 06:28:21;;;;;;;10.38;1.95;;;;;;;;;;4984821;28;20097;-70
2023/01/05 06:30:47;;;;;;;9.25;1.80;;;;;;;;;;4981741;28;20444;-70
2023/01/05 06:33:12;;;;;;;8.75;2.03;;;;;;;;;;4985947;28;20561;-69
2023/01/05 06:35:38;;;;;;;9.52;2.17;;;;;;;;;;4980095;28;20072;-69
2023/01/05 06:38:03;;;;;;;8.35;1.52;;;;;;;;;;4987399;28;20065;-70
2023/01/05 06:40:29;;;;;;;10.07;1.88;;;;;;;;;;4973745;28;20053;-70
2023/01/05 06:42:54;;;;;;;8.75;1.75;;;;;;;;;;4977994;28;20494;-70
2023/01/05 06:45:20;;;;;;;7.07;1.75;;;;;;;;;;4989355;28;20035;-69
2023/01/05 06:47:45;;;;;;;12.52;1.58;;;;;;;;;;4976755;28;20034;-70
2023/01/05 06:50:11;;;;;;;5.22;1.20;;;;;;;;;;4990661;28;20030;-70
2023/01/05 06:52:38;;;;;;;9.48;1.65;;;;;;;;;;4974983;28;20106;-69
2023/01/05 06:55:08;;;;;;;7.80;1.60;;;;;;;;;;4992236;28;20026;-68
2023/01/05 06:57:35;;;;;;;10.15;2.05;;;;;;;;;;4978853;28;20372;-69
2023/01/05 07:00:05;;;;;;;6.20;1.45;;;;;;;;;;4996073;28;20030;-68
2023/01/05 07:02:30;;;;;;;11.88;2.40;;;;;;;;;;4978210;28;20031;-69
2023/01/05 07:04:56;;;;;;;7.45;1.35;;;;;;;;;;4995271;28;20022;-68
2023/01/05 07:07:21;;;;;;;7.68;1.60;;;;;;;;;;4977425;28;20042;-68
2023/01/05 07:09:48;;;;;;;10.70;1.52;;;;;;;;;;4996372;28;20034;-68
2023/01/05 07:12:14;;;;;;;9.05;1.52;;;;;;;;;;4978599;28;20479;-69
2023/01/05 07:14:40;;;;;;;8.15;1.88;;;;;;;;;;5012903;28;20069;-68
2023/01/05 07:17:05;;;;;;;8.00;1.27;;;;;;;;;;4997806;28;20187;-69
2023/01/05 07:19:31;;;;;;;6.20;1.38;;;;;;;;;;4977588;28;20221;-69
2023/01/05 07:21:57;;;;;;;7.20;1.55;;;;;;;;;;4996926;28;20041;-69
2023/01/05 07:24:22;;;;;;;8.35;1.48;;;;;;;;;;4976158;28;20383;-69
2023/01/05 07:26:49;;;;;;;4.82;1.15;;;;;;;;;;4996012;28;20129;-69
2023/01/05 07:29:14;;;;;;;7.90;1.35;;;;;;;;;;4978328;28;20034;-69
2023/01/05 07:31:40;;;;;;;9.88;2.35;;;;;;;;;;4994234;28;20121;-69
2023/01/05 07:34:06;;;;;;;8.02;1.73;;;;;;;;;;4979550;28;20031;-69
2023/01/05 07:36:32;;;;;;;9.65;2.60;;;;;;;;;;4993493;28;20045;-68
2023/01/05 07:38:58;;;;;;;7.00;2.05;;;;;;;;;;4980547;28;20062;-68
2023/01/05 07:41:23;;;;;;;4.53;0.90;;;;;;;;;;4991915;28;20069;-69
2023/01/05 07:43:49;;;;;;;7.75;1.13;;;;;;;;;;4981660;28;20031;-68
2023/01/05 07:46:14;;;;;;;10.82;2.20;;;;;;;;;;4990698;28;20026;-69
2023/01/05 07:48:40;;;;;;;5.63;1.42;;;;;;;;;;4982693;28;20396;-69
2023/01/05 07:51:07;;;;;;;7.53;1.35;;;;;;;;;;4989482;28;20034;-68
2023/01/05 07:53:36;;;;;;;8.63;1.02;;;;;;;;;;5008547;28;20092;-69
2023/01/05 07:56:02;;;;;;;6.80;1.35;;;;;;;;;;5003589;28;20046;-69
2023/01/05 07:58:28;;;;;;;5.43;1.45;;;;;;;;;;4984544;28;20039;-68
2023/01/05 08:00:54;;;;;;;4.25;1.25;;;;;;;;;;4987443;28;20045;-69
2023/01/05 08:03:20;;;;;;;6.82;1.13;;;;;;;;;;4985453;28;20038;-68
2023/01/05 08:05:46;;;;;;;7.60;1.70;;;;;;;;;;4986350;28;20030;-69
2023/01/05 08:08:13;;;;;;;6.25;1.30;;;;;;;;;;4985875;28;20034;-69
2023/01/05 08:10:40;;;;;;;5.18;1.35;;;;;;;;;;4989296;28;20037;-69
2023/01/05 08:15:52;;;;;;;5.28;1.20;;;;;;;;;;4990849;28;20036;-69
2023/01/05 08:18:18;;;;;;;6.53;1.75;;;;;;;;;;4980364;28;20031;-70
2023/01/05 08:20:55;;;;;;;7.22;1.10;;;;;;;;;;4989539;28;20045;-69
2023/01/05 08:23:22;;;;;;;5.07;1.17;;;;;;;;;;4981267;28;20062;-68
2023/01/05 08:25:48;;;;;;;7.78;1.33;;;;;;;;;;4989965;28;20046;-69
2023/01/05 08:28:14;;;;;;;4.15;1.00;;;;;;;;;;4982234;28;20060;-68
2023/01/05 08:30:39;;;;;;;6.63;1.00;;;;;;;;;;4988631;28;20038;-68
2023/01/05 08:33:04;;;;;;;6.32;1.10;;;;;;;;;;5007144;28;20080;-68
2023/01/05 08:35:30;;;;;;;3.75;1.23;;;;;;;;;;5003531;28;20504;-68
2023/01/05 08:37:56;;;;;;;4.57;0.85;;;;;;;;;;4984609;28;20492;-68
2023/01/05 08:40:21;;;;;;;8.68;1.10;;;;;;;;;;4985953;28;20415;-68
2023/01/05 08:42:47;;;;;;;3.85;1.00;;;;;;;;;;4985846;28;20023;-68
2023/01/05 08:45:15;;;;;;;6.95;1.15;;;;;;;;;;4984683;28;20069;-68
2023/01/05 08:47:41;;;;;;;4.80;1.30;;;;;;;;;;4981950;28;20031;-69
2023/01/05 08:50:08;;;;;;;8.40;2.00;;;;;;;;;;4987587;28;20061;-69
2023/01/05 08:52:35;;;;;;;4.72;1.00;;;;;;;;;;4983443;28;20063;-70
2023/01/05 08:55:00;;;;;;;4.95;1.67;;;;;;;;;;4985397;28;20483;-69
2023/01/05 08:57:26;;;;;;;5.60;1.83;;;;;;;;;;4984693;28;20113;-69
2023/01/05 08:59:51;;;;;;;7.07;1.13;;;;;;;;;;4985385;28;20030;-69
2023/01/05 09:02:17;;;;;;;3.08;1.60;;;;;;;;;;4985656;28;20118;-68
2023/01/05 09:04:43;;;;;;;3.60;1.20;;;;;;;;;;4990315;28;20365;-69
2023/01/05 09:07:08;;;;;;;5.10;2.00;;;;;;;;;;4987134;28;20113;-69
2023/01/05 09:09:34;;;;;;;7.15;1.02;;;;;;;;;;4983433;28;20412;-70
2023/01/05 09:11:59;;;;;;;6.15;1.77;;;;;;;;;;4996936;28;20336;-70
2023/01/05 09:14:25;;;;;;;11.40;1.80;;;;;;;;;;5004115;28;20041;-70
2023/01/05 09:16:50;;;;;;;7.18;1.50;;;;;;;;;;4984991;28;20039;-70
2023/01/05 09:19:16;;;;;;;4.25;1.10;;;;;;;;;;4982711;28;20030;-70
2023/01/05 09:21:41;;;;;;;6.05;2.58;;;;;;;;;;4986372;28;20054;-70
2023/01/05 09:24:11;;;;;;;7.45;2.70;;;;;;;;;;4982504;28;20026;-70
2023/01/05 09:26:36;;;;;;;8.32;1.38;;;;;;;;;;4986800;28;20102;-70
2023/01/05 09:29:01;;;;;;;6.95;1.92;;;;;;;;;;4981840;28;20165;-69
2023/01/05 09:31:27;;;;;;;5.13;1.95;;;;;;;;;;4990824;28;20184;-69
2023/01/05 09:33:52;;;;;;;4.70;1.27;;;;;;;;;;4994221;28;20031;-70
2023/01/05 09:36:18;;;;;;;12.05;3.28;;;;;;;;;;4989298;28;20034;-69
2023/01/05 09:38:51;;;;;;;8.10;2.75;;;;;;;;;;4979171;28;20166;-69
2023/01/05 09:41:37;;;;;;;2.95;1.80;;;;;;;;;;4993759;28;20044;-70
2023/01/05 09:44:24;;;;;;;6.78;2.63;;;;;;;;;;4993765;28;20041;-69
2023/01/05 09:46:51;;;;;;;6.32;1.25;;;;;;;;;;4984867;28;20435;-70
2023/01/05 09:49:21;;;;;;;7.55;2.20;;;;;;;;;;4991325;28;20041;-71
2023/01/05 09:51:49;;;;;;;8.70;3.28;;;;;;;;;;5004835;28;20507;-70
2023/01/05 09:54:16;;;;;;;10.65;2.13;;;;;;;;;;4985641;28;20043;-70
2023/01/05 09:56:45;;;;;;;1.88;1.20;;;;;;;;;;4982008;28;20040;-69
2023/01/05 09:59:19;;;;;;;5.30;1.33;;;;;;;;;;4985882;28;20440;-70
2023/01/05 10:01:47;;;;;;;6.38;1.55;;;;;;;;;;4982423;28;20483;-70
2023/01/05 10:04:19;;;;;;;4.78;0.80;;;;;;;;;;4986463;28;20038;-69
2023/01/05 10:07:07;;;;;;;7.35;1.75;;;;;;;;;;4982168;28;20081;-69
2023/01/05 10:09:37;;;;;;;6.05;1.58;;;;;;;;;;4983386;28;20038;-70
2023/01/05 10:14:59;;;;;;;6.03;1.63;;;;;;;;;;4980423;28;20120;-70
2023/01/05 10:17:28;;;;;;;5.05;1.40;;;;;;;;;;4987463;28;20162;-70
2023/01/05 10:19:53;;;;;;;7.50;1.45;;;;;;;;;;4980513;28;20435;-70
2023/01/05 10:22:37;;;;;;;4.80;1.85;;;;;;;;;;4986358;28;20037;-69
2023/01/05 10:25:25;;;;;;;5.72;1.05;;;;;;;;;;4973925;28;20198;-71
2023/01/05 10:28:24;;;;;;;4.30;1.00;;;;;;;;;;5006865;28;20546;-69
2023/01/05 10:31:07;;;;;;;3.83;1.00;;;;;;;;;;4986078;28;20052;-69
2023/01/05 10:33:38;;;;;;;5.30;2.17;;;;;;;;;;4992692;28;20195;-69
2023/01/05 10:36:22;;;;;;;4.90;0.90;;;;;;;;;;5010322;28;20029;-69
2023/01/05 10:38:55;;;;;;;3.15;0.93;;;;;;;;;;4993140;28;20045;-69
2023/01/05 10:41:33;;;;;;;3.38;1.05;;;;;;;;;;4988881;28;20063;-70
2023/01/05 10:44:17;;;;;;;3.53;0.90;;;;;;;;;;4978926;28;20487;-70
2023/01/05 10:46:47;;;;;;;3.75;0.95;;;;;;;;;;4985933;28;20034;-70
2023/01/05 10:49:20;;;;;;;2.15;0.70;;;;;;;;;;4980815;28;20082;-70
2023/01/05 10:51:48;;;;;;;4.97;1.17;;;;;;;;;;4985527;28;20126;-70
2023/01/05 10:54:31;;;;;;;2.50;0.90;;;;;;;;;;4981012;28;20084;-70
2023/01/05 10:57:31;;;;;;;3.65;0.93;;;;;;;;;;4983922;28;20022;-70
2023/01/05 11:00:05;;;;;;;1.38;0.57;;;;;;;;;;4986533;28;20109;-70
2023/01/05 11:02:34;;;;;;;1.88;0.73;;;;;;;;;;4979633;28;20027;-70
2023/01/05 11:05:31;;;;;;;4.18;1.08;;;;;;;;;;5000043;28;20045;-68
2023/01/05 11:08:00;;;;;;;2.75;0.82;;;;;;;;;;4993138;28;20537;-69
2023/01/05 11:10:48;;;;;;;2.88;1.00;;;;;;;;;;4976271;28;20089;-71
2023/01/05 11:13:33;;;;;;;2.72;0.93;;;;;;;;;;4974691;28;20043;-71
2023/01/05 11:16:05;;;;;;;6.65;1.30;;;;;;;;;;4974353;28;20043;-69
2023/01/05 11:18:37;;;;;;;4.63;1.05;;;;;;;;;;4991717;28;20034;-69
2023/01/05 11:21:17;;;;;;;4.25;1.33;;;;;;;;;;4974560;28;20027;-70
2023/01/05 11:23:48;;;;;;;5.80;2.00;;;;;;;;;;4990278;28;20046;-70
2023/01/05 11:26:17;;;;;;;6.03;2.83;;;;;;;;;;4975780;28;20048;-70
2023/01/05 11:29:07;;;;;;;6.65;2.35;;;;;;;;;;4985987;28;20031;-69
2023/01/05 11:31:58;;;;;;;2.15;1.30;;;;;;;;;;4986227;28;20084;-71
2023/01/05 11:34:39;;;;;;;3.83;1.80;;;;;;;;;;4973681;28;20047;-70
2023/01/05 11:37:10;;;;;;;5.38;1.50;;;;;;;;;;4990772;28;20053;-69
2023/01/05 11:39:44;;;;;;;4.35;2.30;;;;;;;;;;4975110;28;20086;-70
2023/01/05 11:42:18;;;;;;;4.57;2.30;;;;;;;;;;4991808;28;20108;-70
2023/01/05 11:44:50;;;;;;;4.80;2.47;;;;;;;;;;5013808;28;20352;-70
2023/01/05 11:47:42;;;;;;;5.75;2.60;;;;;;;;;;4996686;28;20088;-70
2023/01/05 11:50:23;;;;;;;3.67;1.80;;;;;;;;;;4977671;28;20125;-70
2023/01/05 11:52:54;;;;;;;6.45;3.13;;;;;;;;;;4993106;28;20030;-70
2023/01/05 11:55:20;;;;;;;;;;;;;;;;;;4979920;28;20129;-70
2023/01/05 11:57:51;;;;;;;9.80;6.15;;;;;;;;;;4993619;28;19910;-70
2023/01/05 12:00:25;;;;;;;10.10;3.40;;;;;;;;;;4979217;28;20038;-70
2023/01/05 12:03:11;;;;;;;10.68;6.20;;;;;;;;;;4991616;28;20027;-71
2023/01/05 12:05:51;;;;;;;9.43;4.30;;;;;;;;;;4981029;28;20033;-70
2023/01/05 12:08:29;;;;;;;7.43;2.58;;;;;;;;;;4995075;28;20116;-70
2023/01/05 12:11:18;;;;;;;14.90;5.00;;;;;;;;;;4988527;28;20138;-71
2023/01/05 12:14:23;;;;;;;19.02;8.88;;;;;;;;;;4995898;28;20026;-70
2023/01/05 12:16:54;;;;;;;5.85;2.17;;;;;;;;;;4980872;28;20042;-70
2023/01/05 12:19:35;;;;;;;8.85;3.78;;;;;;;;;;4991001;28;20057;-70
2023/01/05 12:22:12;;;;;;;13.10;5.68;;;;;;;;;;5011903;28;20056;-70
2023/01/05 12:24:46;;;;;;;5.22;1.98;;;;;;;;;;4997563;28;20507;-70
2023/01/05 12:27:34;;;;;;;4.28;2.33;;;;;;;;;;4977439;28;20449;-70
2023/01/05 12:30:12;;;;;;;6.07;3.63;;;;;;;;;;4976007;28;20026;-69
2023/01/05 12:32:53;;;;;;;5.85;2.42;;;;;;;;;;4994115;28;20124;-70
2023/01/05 12:35:21;;;;;;;7.72;3.13;;;;;;;;;;4985607;28;20031;-69
2023/01/05 12:38:04;;;;;;;18.20;3.80;;;;;;;;;;4993813;28;20378;-71
2023/01/05 12:40:56;;;;;;;5.13;2.13;;;;;;;;;;4991190;28;20506;-69
2023/01/05 12:43:40;;;;;;;7.55;4.25;;;;;;;;;;4982574;28;20034;-70
2023/01/05 12:46:08;;;;;;;11.35;4.05;;;;;;;;;;4986499;28;20035;-70
2023/01/05 12:48:40;;;;;;;10.75;3.90;;;;;;;;;;4983884;28;20130;-70
2023/01/05 12:51:21;;;;;;;10.05;4.15;;;;;;;;;;4982471;28;20384;-71
2023/01/05 12:54:15;;;;;;;13.95;4.32;;;;;;;;;;4989164;28;20387;-70
2023/01/05 12:56:52;;;;;;;9.50;3.40;;;;;;;;;;4977643;28;20030;-70
2023/01/05 12:59:36;;;;;;;5.53;2.05;;;;;;;;;;4994491;28;20122;-71
2023/01/05 13:02:22;;;;;;;5.45;2.28;;;;;;;;;;4993590;28;20197;-70
2023/01/05 13:04:56;;;;;;;6.50;2.08;;;;;;;;;;4977509;28;20109;-70
2023/01/05 13:07:33;;;;;;;3.83;1.83;;;;;;;;;;4992177;28;20092;-70
2023/01/05 13:10:03;;;;;;;7.80;4.10;;;;;;;;;;4978590;28;20041;-70
2023/01/05 13:12:30;;;;;;;10.57;3.05;;;;;;;;;;4991533;28;20471;-70
2023/01/05 13:15:38;;;;;;;5.45;1.90;;;;;;;;;;4978179;28;20500;-71
2023/01/05 13:18:05;;;;;;;7.20;2.03;;;;;;;;;;4986671;28;20463;-69
2023/01/05 13:20:51;;;;;;;9.18;2.28;;;;;;;;;;4982573;28;20022;-70
2023/01/05 13:23:31;;;;;;;2.78;1.30;;;;;;;;;;4984334;28;20057;-69
2023/01/05 13:26:01;;;;;;;8.65;2.53;;;;;;;;;;4985807;28;20045;-70
2023/01/05 13:28:27;;;;;;;4.18;1.27;;;;;;;;;;4983492;28;20030;-70
2023/01/05 13:31:05;;;;;;;6.65;1.60;;;;;;;;;;4985153;28;20041;-69
2023/01/05 13:33:51;;;;;;;2.10;1.17;;;;;;;;;;4982830;28;20534;-69
2023/01/05 13:36:38;;;;;;;5.13;1.48;;;;;;;;;;4988232;28;20084;-69
2023/01/05 13:39:41;;;;;;;3.85;1.20;;;;;;;;;;5009950;28;20035;-69
2023/01/05 13:42:18;;;;;;;7.38;1.65;;;;;;;;;;4974684;28;20035;-69
2023/01/05 13:44:59;;;;;;;5.97;1.58;;;;;;;;;;4975396;28;20069;-69
2023/01/05 13:47:50;;;;;;;3.17;1.30;;;;;;;;;;4991554;28;20057;-69
2023/01/05 13:50:18;;;;;;;4.70;1.48;;;;;;;;;;4979447;28;20517;-70
2023/01/05 13:53:02;;;;;;;5.30;1.25;;;;;;;;;;4988861;28;20479;-70
2023/01/05 13:55:30;;;;;;;3.63;1.50;;;;;;;;;;4980810;28;20053;-70
2023/01/05 13:57:55;;;;;;;2.72;1.25;;;;;;;;;;4987482;28;20050;-70
2023/01/05 14:00:40;;;;;;;8.95;2.50;;;;;;;;;;4984076;28;20026;-70
2023/01/05 14:03:19;;;;;;;2.83;1.38;;;;;;;;;;4981986;28;20019;-71
2023/01/05 14:05:50;;;;;;;3.17;1.27;;;;;;;;;;4986180;28;20085;-70
2023/01/05 14:08:27;;;;;;;1.77;0.90;;;;;;;;;;4980679;28;20038;-70
2023/01/05 14:11:10;;;;;;;2.90;1.30;;;;;;;;;;4987750;28;20539;-69
2023/01/05 14:13:53;;;;;;;10.63;4.90;;;;;;;;;;4978035;28;20031;-69
2023/01/05 14:16:34;;;;;;;4.80;1.80;;;;;;;;;;4991262;28;20440;-70
2023/01/05 14:19:25;;;;;;;4.30;1.63;;;;;;;;;;5012134;28;20037;-70
2023/01/05 14:21:58;;;;;;;4.47;1.70;;;;;;;;;;4974946;28;20464;-70
2023/01/05 14:24:38;;;;;;;2.83;1.30;;;;;;;;;;4991680;28;20030;-70
2023/01/05 14:27:11;;;;;;;6.50;1.55;;;;;;;;;;4976748;28;20495;-70
2023/01/05 14:29:45;;;;;;;3.83;1.30;;;;;;;;;;4990242;28;20368;-70
2023/01/05 14:32:17;;;;;;;4.60;1.27;;;;;;;;;;4977391;28;20046;-70
2023/01/05 14:35:08;;;;;;;3.45;1.33;;;;;;;;;;4985154;28;20085;-70
2023/01/05 14:37:48;;;;;;;6.45;1.88;;;;;;;;;;4986401;28;20042;-70
2023/01/05 14:40:38;;;;;;;2.83;0.88;;;;;;;;;;4991059;28;20037;-69
2023/01/05 14:43:28;;;;;;;4.03;1.05;;;;;;;;;;4990765;28;20052;-70
2023/01/05 14:45:58;;;;;;;1.13;0.80;;;;;;;;;;4990695;28;20117;-69
2023/01/05 14:48:29;;;;;;;;;;;;;;;;;;4991370;28;20161;-70
2023/01/05 14:51:19;;;;;;;2.08;0.95;;;;;;;;;;4990693;28;19925;-69
2023/01/05 14:53:46;;;;;;;3.72;1.38;;;;;;;;;;4991012;28;20037;-69
2023/01/05 14:56:15;;;;;;;3.63;1.50;;;;;;;;;;4998493;28;20120;-70
2023/01/05 14:58:41;;;;;;;3.85;1.70;;;;;;;;;;4986570;28;20135;-69
2023/01/05 15:01:21;;;;;;;4.88;2.17;;;;;;;;;;4990571;28;20623;-69
2023/01/05 15:03:56;;;;;;;;;;;;;;;;;;4991139;28;20089;-68
2023/01/05 15:06:33;;;;;;;6.13;2.80;;;;;;;;;;4990838;28;20362;-69
2023/01/05 15:09:31;;;;;;;7.68;2.42;;;;;;;;;;4990812;28;20038;-69
2023/01/05 15:12:14;;;;;;;2.70;1.60;;;;;;;;;;4990709;28;20057;-69
2023/01/05 15:15:17;;;;;;;7.90;1.88;;;;;;;;;;4980063;28;20158;-69
2023/01/05 15:18:08;;;;;;;4.68;1.33;;;;;;;;;;4976814;28;20035;-70
2023/01/05 15:21:09;;;;;;;4.10;1.60;;;;;;;;;;4979561;28;20031;-70
2023/01/05 15:23:56;;;;;;;5.97;2.22;;;;;;;;;;4975139;28;20043;-70
2023/01/05 15:26:27;;;;;;;6.35;2.70;;;;;;;;;;4975103;28;20034;-70
2023/01/05 15:29:05;;;;;;;7.80;3.50;;;;;;;;;;4975060;28;20380;-70
2023/01/05 15:31:35;;;;;;;9.60;3.72;;;;;;;;;;4974769;28;20125;-69
2023/01/05 15:34:18;;;;;;;6.47;3.17;;;;;;;;;;4984293;28;20039;-71
2023/01/05 15:37:21;;;;;;;7.43;4.53;;;;;;;;;;4982861;28;20131;-71
2023/01/05 15:39:49;;;;;;;5.00;2.80;;;;;;;;;;4974751;28;20117;-69
2023/01/05 15:42:21;;;;;;;7.30;3.67;;;;;;;;;;4974650;28;20073;-70
2023/01/05 15:44:50;;;;;;;4.07;2.58;;;;;;;;;;4974780;28;20031;-70
2023/01/05 15:47:17;;;;;;;4.68;1.88;;;;;;;;;;4955052;29;20035;-70
2023/01/05 15:49:44;;;;;;;9.55;2.10;;;;;;;;;;4974351;28;20069;-70